Airfield :
LOGIN :

Register | Disclaimer

   EN    FR    IT 

 










Legend :    VFR   Marginal VFR   IFR   Intensive IFR   Very Intensive IFR
Visi :
Ceiling :
>= 8 km
>= 3000ft
5 to 8 km
1000 to 3000 ft
1500m to 5 km
500 to 1000 ft
800 to 1500m
200 to 500 ft
< 800m
< 200 ft
Symbols :   Thunderstorms  Fog  Heavy snow  Heavy precipitations  Wind > 20 kt
SIGMETs :     Misc.  Thunderstorms  Icing  Turbulence  Mountain Waves  Volcanic Ashes







- Airport Elevation : 242 ft
- IATA code : DUB


EIDW - Dublin

CURRENT METAR :
  • 231500Z 24026G37KT 9999 FEW012 BKN200 12/06 Q1003 NOSIG

EXPIRED METARs :
  • 231430Z 24027G38KT 9999 FEW012 SCT200 12/06 Q1002 NOSIG
  • 231400Z 24028G39KT 9999 FEW012 SCT200 13/07 Q1002 NOSIG
  • 231330Z 24025G37KT 9999 FEW015 SCT200 13/07 Q1002 NOSIG
  • 231300Z 24027G39KT 9999 FEW015 BKN200 13/08 Q1002 NOSIG
  • 231230Z 23025G35KT 9999 FEW015 BKN200 13/09 Q1002 NOSIG

TAF COR TAF EIDW
Valid from the 23 at 12:00 until the 24 at 12:00 UTC


231127Z 2312/2412 23020G32KT 9999 SCT018 SCT030
TEMPO 2312/2315 24024G38KT
BECMG 2316/2318 23015KT
BECMG 2319/2321 20013KT
BECMG 2321/2323 19020G34KT
TEMPO 2322/2404 7000 -RA BKN013
BECMG 2323/2401 20028G47KT
TEMPO 2401/2403 21032G52KT
BECMG 2401/2403 23029G47KT
PROB40
TEMPO 2402/2404 5000 RA
BECMG 2403/2405 23025G40KT
BECMG 2405/2407 23018G32KT
TEMPO 2407/2412 23023G37KT
TEMPO 2409/2412 -SHRA SCT018CB
No reported NOTAMs for that airfield.



MET'MAP, your aeronautical weather chart ! - Copyright ORBIFLY December 2007 - Disclaimer

ORBIFLY MET'MAP TEAM :

Programming & Development : Alexandra Zaïnal
Concept & Development : Baudouin d'Aumeries
Co-Development & Prog : Marc-Olivier Méhu
Technical & hardware support : Manuel Goepfert

Contact : metmap@orbifly.com




SOURCES & CREDITS :

   NOAA